Time;durP1;ratioP1;P1;durP2;ratioP2;P2;SDS_P1;SDS_P2;PMS_P1;PMS_P2;Temp;Humidity;BMP_temperature;BMP_pressure;BME280_temperature;BME280_humidity;BME280_pressure;Samples;Min_cycle;Max_cycle;Signal;HPM_P1;HPM_P2
2023/07/14 00:01:20;;;;;;;13.38;8.50;;;;;;;;;;5105853;27;20051;-65
2023/07/14 00:03:47;;;;;;;15.95;8.13;;;;;;;;;;5099674;27;20076;-65
2023/07/14 00:06:14;;;;;;;12.45;8.77;;;;;;;;;;5113714;27;20410;-65
2023/07/14 00:08:40;;;;;;;12.40;8.35;;;;;;;;;;5105230;27;20035;-65
2023/07/14 00:11:17;;;;;;;17.20;9.77;;;;;;;;;;5110802;27;20138;-65
2023/07/14 00:13:44;;;;;;;10.85;7.63;;;;;;;;;;5142585;27;20438;-65
2023/07/14 00:16:15;;;;;;;15.57;9.05;;;;;;;;;;5112660;28;20211;-65
2023/07/14 00:18:41;;;;;;;15.07;8.93;;;;;;;;;;5102215;27;20123;-65
2023/07/14 00:21:14;;;;;;;17.15;9.50;;;;;;;;;;5113701;28;20127;-65
2023/07/14 00:23:40;;;;;;;14.88;9.95;;;;;;;;;;5113807;28;20055;-65
2023/07/14 00:26:13;;;;;;;15.55;9.98;;;;;;;;;;5113166;28;20402;-65
2023/07/14 00:28:39;;;;;;;14.30;9.93;;;;;;;;;;5107511;27;20040;-64
2023/07/14 00:31:05;;;;;;;15.60;10.13;;;;;;;;;;5112899;27;20071;-65
2023/07/14 00:33:31;;;;;;;16.40;9.77;;;;;;;;;;5113410;27;20069;-65
2023/07/14 00:35:58;;;;;;;12.73;9.68;;;;;;;;;;5104037;27;20051;-65
2023/07/14 00:38:24;;;;;;;16.88;10.07;;;;;;;;;;5103850;27;20479;-65
2023/07/14 00:40:50;;;;;;;15.80;10.10;;;;;;;;;;5107040;27;20045;-65
2023/07/14 00:43:20;;;;;;;16.63;10.38;;;;;;;;;;5099978;28;20118;-65
2023/07/14 00:45:48;;;;;;;15.95;11.38;;;;;;;;;;5105909;28;20048;-65
2023/07/14 00:48:20;;;;;;;14.10;10.43;;;;;;;;;;5107710;27;20039;-65
2023/07/14 00:50:46;;;;;;;17.52;11.15;;;;;;;;;;5112630;27;20145;-65
2023/07/14 00:53:18;;;;;;;16.17;10.02;;;;;;;;;;5107643;27;20070;-65
2023/07/14 00:55:46;;;;;;;17.10;11.27;;;;;;;;;;5094198;28;20058;-65
2023/07/14 00:58:14;;;;;;;16.80;10.18;;;;;;;;;;5094519;28;20443;-65
2023/07/14 01:00:40;;;;;;;17.00;11.48;;;;;;;;;;5111279;27;20449;-65
2023/07/14 01:03:14;;;;;;;18.70;10.82;;;;;;;;;;5105313;27;20042;-65
2023/07/14 01:05:40;;;;;;;16.25;10.75;;;;;;;;;;5110812;28;20589;-65
2023/07/14 01:08:07;;;;;;;22.40;11.82;;;;;;;;;;5108237;28;20466;-65
2023/07/14 01:10:33;;;;;;;13.15;10.30;;;;;;;;;;5106007;28;20046;-65
2023/07/14 01:13:01;;;;;;;18.40;12.00;;;;;;;;;;5109300;28;20198;-65
2023/07/14 01:15:28;;;;;;;15.98;11.43;;;;;;;;;;5110175;27;20047;-65
2023/07/14 01:17:54;;;;;;;19.13;12.10;;;;;;;;;;5109612;27;20096;-65
2023/07/14 01:20:20;;;;;;;15.93;11.85;;;;;;;;;;5110092;28;20054;-65
2023/07/14 01:22:50;;;;;;;18.00;12.43;;;;;;;;;;5107247;27;20349;-65
2023/07/14 01:25:32;;;;;;;18.20;12.43;;;;;;;;;;5141851;27;20169;-65
2023/07/14 01:27:59;;;;;;;18.10;12.32;;;;;;;;;;5106205;28;20036;-65
2023/07/14 01:30:25;;;;;;;20.35;12.75;;;;;;;;;;5109561;28;20044;-65
2023/07/14 01:32:51;;;;;;;15.57;11.27;;;;;;;;;;5110642;27;20169;-65
2023/07/14 01:35:19;;;;;;;17.77;11.27;;;;;;;;;;5107126;28;20058;-65
2023/07/14 01:37:46;;;;;;;16.63;11.70;;;;;;;;;;5103143;28;20048;-65
2023/07/14 01:40:17;;;;;;;16.35;11.88;;;;;;;;;;5108228;28;20083;-65
2023/07/14 01:42:46;;;;;;;20.02;12.30;;;;;;;;;;5108781;27;20988;-65
2023/07/14 01:45:13;;;;;;;18.65;12.35;;;;;;;;;;5111646;28;20535;-65
2023/07/14 01:47:41;;;;;;;16.77;10.70;;;;;;;;;;5094624;28;20066;-65
2023/07/14 01:50:15;;;;;;;15.35;10.90;;;;;;;;;;5110841;27;20155;-65
2023/07/14 01:52:42;;;;;;;22.45;13.45;;;;;;;;;;5108005;27;20048;-65
2023/07/14 01:55:10;;;;;;;18.75;11.75;;;;;;;;;;5109694;27;20040;-65
2023/07/14 01:57:37;;;;;;;16.27;11.38;;;;;;;;;;5109271;27;20055;-65
2023/07/14 02:00:06;;;;;;;17.25;10.70;;;;;;;;;;5128780;27;20055;-65
2023/07/14 02:02:36;;;;;;;15.82;11.82;;;;;;;;;;5109941;28;20043;-65
2023/07/14 02:05:04;;;;;;;17.00;12.00;;;;;;;;;;5110312;28;20074;-65
2023/07/14 02:07:31;;;;;;;24.83;13.10;;;;;;;;;;5108770;27;20100;-65
2023/07/14 02:09:57;;;;;;;18.95;11.93;;;;;;;;;;5104131;28;20044;-65
2023/07/14 02:12:28;;;;;;;21.95;12.70;;;;;;;;;;5135305;27;20047;-65
2023/07/14 02:15:03;;;;;;;16.55;11.85;;;;;;;;;;5105354;28;20048;-65
2023/07/14 02:17:31;;;;;;;18.30;11.57;;;;;;;;;;5110332;28;20039;-65
2023/07/14 02:19:59;;;;;;;17.98;11.18;;;;;;;;;;5107637;28;20513;-65
2023/07/14 02:22:25;;;;;;;16.60;11.52;;;;;;;;;;5105410;28;20055;-65
2023/07/14 02:24:52;;;;;;;17.65;10.95;;;;;;;;;;5105791;27;20071;-65
2023/07/14 02:27:18;;;;;;;23.60;12.40;;;;;;;;;;5110884;28;20514;-65
2023/07/14 02:29:45;;;;;;;18.98;11.20;;;;;;;;;;5106293;28;20038;-65
2023/07/14 02:32:14;;;;;;;14.70;10.10;;;;;;;;;;5109063;28;20032;-65
2023/07/14 02:34:42;;;;;;;17.75;10.95;;;;;;;;;;5107798;28;20085;-65
2023/07/14 02:37:35;;;;;;;16.30;11.15;;;;;;;;;;5104939;28;20043;-65
2023/07/14 02:40:04;;;;;;;14.95;10.57;;;;;;;;;;5105314;28;20040;-65
2023/07/14 02:42:36;;;;;;;15.13;10.82;;;;;;;;;;5110964;28;20048;-65
2023/07/14 02:45:02;;;;;;;20.85;11.07;;;;;;;;;;5098207;28;20093;-65
2023/07/14 02:47:28;;;;;;;19.50;11.75;;;;;;;;;;5109582;28;20142;-65
2023/07/14 02:49:54;;;;;;;15.73;11.75;;;;;;;;;;5105078;28;20047;-65
2023/07/14 02:52:21;;;;;;;16.80;10.70;;;;;;;;;;5104973;28;20055;-65
2023/07/14 02:54:47;;;;;;;21.38;11.60;;;;;;;;;;5108431;28;20036;-65
2023/07/14 02:57:13;;;;;;;17.13;11.07;;;;;;;;;;5106762;28;20043;-65
2023/07/14 02:59:39;;;;;;;15.95;12.00;;;;;;;;;;5101418;28;20486;-65
2023/07/14 03:02:06;;;;;;;14.70;10.50;;;;;;;;;;5108376;28;20055;-65
2023/07/14 03:04:34;;;;;;;18.50;10.93;;;;;;;;;;5106071;28;20176;-65
2023/07/14 03:07:01;;;;;;;20.48;10.93;;;;;;;;;;5110438;27;20371;-65
2023/07/14 03:09:27;;;;;;;14.35;9.55;;;;;;;;;;5106268;28;20039;-64
2023/07/14 03:11:53;;;;;;;14.82;8.95;;;;;;;;;;5108635;28;20046;-65
2023/07/14 03:14:20;;;;;;;18.15;9.88;;;;;;;;;;5108928;28;20079;-65
2023/07/14 03:16:46;;;;;;;13.60;9.25;;;;;;;;;;5107429;28;20032;-65
2023/07/14 03:19:12;;;;;;;15.20;9.55;;;;;;;;;;5107835;28;20048;-65
2023/07/14 03:21:38;;;;;;;13.68;9.32;;;;;;;;;;5107416;28;20391;-65
2023/07/14 03:24:05;;;;;;;16.80;9.82;;;;;;;;;;5106537;28;20054;-65
2023/07/14 03:26:32;;;;;;;16.00;9.57;;;;;;;;;;5108961;28;20058;-65
2023/07/14 03:28:58;;;;;;;19.13;10.13;;;;;;;;;;5107203;28;20109;-65
2023/07/14 03:31:24;;;;;;;14.10;9.82;;;;;;;;;;5106106;28;20058;-65
2023/07/14 03:33:51;;;;;;;16.30;9.50;;;;;;;;;;5110416;28;20043;-65
2023/07/14 03:36:20;;;;;;;17.48;10.63;;;;;;;;;;5106670;28;20043;-65
2023/07/14 03:38:46;;;;;;;15.13;10.40;;;;;;;;;;5139809;27;20052;-65
2023/07/14 03:41:14;;;;;;;15.23;10.52;;;;;;;;;;5107722;28;20043;-65
2023/07/14 03:43:41;;;;;;;15.38;10.98;;;;;;;;;;5104086;28;20048;-65
2023/07/14 03:46:07;;;;;;;16.73;10.52;;;;;;;;;;5122987;27;20044;-65
2023/07/14 03:48:33;;;;;;;15.10;9.45;;;;;;;;;;5139205;27;20095;-65
2023/07/14 03:51:01;;;;;;;19.48;10.50;;;;;;;;;;5109742;27;20058;-65
2023/07/14 03:53:27;;;;;;;12.23;8.63;;;;;;;;;;5083368;27;20043;-64
2023/07/14 03:55:53;;;;;;;15.10;8.38;;;;;;;;;;5113023;28;20391;-64
2023/07/14 03:58:20;;;;;;;15.07;9.60;;;;;;;;;;5108484;28;20047;-64
2023/07/14 04:00:46;;;;;;;15.95;9.40;;;;;;;;;;5112454;27;20039;-64
2023/07/14 04:03:12;;;;;;;16.95;10.02;;;;;;;;;;5110965;28;20064;-64
2023/07/14 04:05:38;;;;;;;15.38;9.52;;;;;;;;;;5108725;27;20133;-64
2023/07/14 04:08:05;;;;;;;20.25;9.05;;;;;;;;;;5112246;27;20410;-64
2023/07/14 04:10:31;;;;;;;18.00;8.77;;;;;;;;;;5112182;28;20039;-64
2023/07/14 04:12:59;;;;;;;16.10;9.38;;;;;;;;;;5138963;27;20059;-64
2023/07/14 04:15:25;;;;;;;15.90;9.35;;;;;;;;;;5106804;27;20048;-64
2023/07/14 04:17:51;;;;;;;14.45;8.65;;;;;;;;;;5105022;28;20479;-64
2023/07/14 04:20:18;;;;;;;17.40;8.40;;;;;;;;;;5109021;27;20080;-64
2023/07/14 04:22:44;;;;;;;16.33;8.43;;;;;;;;;;5107985;28;20092;-64
2023/07/14 04:25:10;;;;;;;17.50;9.10;;;;;;;;;;5115248;27;20040;-63
2023/07/14 04:27:37;;;;;;;18.35;8.90;;;;;;;;;;5102846;28;20116;-63
2023/07/14 04:30:04;;;;;;;15.68;9.48;;;;;;;;;;5109346;27;20047;-63
2023/07/14 04:32:30;;;;;;;17.60;9.77;;;;;;;;;;5112735;27;20491;-63
2023/07/14 04:34:56;;;;;;;15.52;8.93;;;;;;;;;;5113112;27;20097;-64
2023/07/14 04:37:23;;;;;;;16.48;8.75;;;;;;;;;;5111901;27;20530;-64
2023/07/14 04:39:49;;;;;;;15.52;8.32;;;;;;;;;;5109012;27;20036;-64
2023/07/14 04:42:15;;;;;;;15.70;8.00;;;;;;;;;;5110700;27;20031;-63
2023/07/14 04:44:41;;;;;;;14.65;8.23;;;;;;;;;;5116091;27;20039;-63
2023/07/14 04:47:08;;;;;;;17.58;10.00;;;;;;;;;;5114230;28;20115;-64
2023/07/14 04:49:35;;;;;;;15.90;9.18;;;;;;;;;;5111835;27;20151;-64
2023/07/14 04:52:01;;;;;;;17.42;8.13;;;;;;;;;;5112778;28;20073;-64
2023/07/14 04:54:27;;;;;;;17.40;8.63;;;;;;;;;;5112635;28;20043;-64
2023/07/14 04:56:54;;;;;;;15.95;9.00;;;;;;;;;;5110970;27;20126;-64
2023/07/14 04:59:20;;;;;;;15.65;7.93;;;;;;;;;;5112426;27;20046;-64
2023/07/14 05:01:46;;;;;;;11.90;7.05;;;;;;;;;;5112459;28;20046;-64
2023/07/14 05:04:12;;;;;;;12.80;6.50;;;;;;;;;;5112496;28;20079;-64
2023/07/14 05:06:39;;;;;;;15.35;7.32;;;;;;;;;;5111319;27;20047;-64
2023/07/14 05:09:07;;;;;;;18.40;7.93;;;;;;;;;;5111737;27;20039;-64
2023/07/14 05:11:33;;;;;;;18.65;7.97;;;;;;;;;;5112849;28;20097;-64
2023/07/14 05:13:59;;;;;;;14.57;7.72;;;;;;;;;;5112484;28;20446;-64
2023/07/14 05:16:25;;;;;;;26.75;7.80;;;;;;;;;;5109913;28;20138;-64
2023/07/14 05:18:51;;;;;;;12.65;7.32;;;;;;;;;;5125389;27;20077;-64
2023/07/14 05:21:18;;;;;;;16.58;7.78;;;;;;;;;;5113451;28;20502;-64
2023/07/14 05:23:44;;;;;;;15.02;7.03;;;;;;;;;;5111527;28;20036;-64
2023/07/14 05:26:10;;;;;;;14.13;6.55;;;;;;;;;;5112084;28;20080;-64
2023/07/14 05:28:37;;;;;;;14.55;7.03;;;;;;;;;;5111719;27;20035;-64
2023/07/14 05:31:05;;;;;;;12.25;6.53;;;;;;;;;;5111550;27;20051;-64
2023/07/14 05:33:31;;;;;;;13.75;7.43;;;;;;;;;;5094900;28;20074;-64
2023/07/14 05:35:57;;;;;;;16.60;7.63;;;;;;;;;;5113194;28;20409;-64
2023/07/14 05:38:24;;;;;;;11.85;6.43;;;;;;;;;;5110738;28;20044;-64
2023/07/14 05:40:52;;;;;;;13.35;7.45;;;;;;;;;;5111574;27;20108;-64
2023/07/14 05:43:18;;;;;;;15.00;6.78;;;;;;;;;;5110750;27;20043;-64
2023/07/14 05:45:47;;;;;;;11.38;5.60;;;;;;;;;;5112258;28;20105;-64
2023/07/14 05:48:17;;;;;;;13.05;6.32;;;;;;;;;;5112424;28;20051;-64
2023/07/14 05:50:44;;;;;;;14.70;6.30;;;;;;;;;;5110112;27;20055;-63
2023/07/14 05:53:12;;;;;;;12.45;5.63;;;;;;;;;;5111922;28;20494;-64
2023/07/14 05:55:38;;;;;;;12.07;6.13;;;;;;;;;;5112821;28;20047;-64
2023/07/14 05:58:06;;;;;;;13.50;6.18;;;;;;;;;;5112002;28;20429;-64
2023/07/14 06:00:38;;;;;;;11.15;5.88;;;;;;;;;;5111507;28;20115;-64
2023/07/14 06:03:06;;;;;;;14.07;6.43;;;;;;;;;;5112538;28;20044;-64
2023/07/14 06:05:32;;;;;;;11.98;5.57;;;;;;;;;;5128556;27;20499;-64
2023/07/14 06:07:59;;;;;;;10.75;5.20;;;;;;;;;;5109898;28;20078;-64
2023/07/14 06:10:25;;;;;;;12.43;5.47;;;;;;;;;;5093754;28;20519;-64
2023/07/14 06:12:51;;;;;;;11.23;5.50;;;;;;;;;;5110237;28;20088;-64
2023/07/14 06:15:17;;;;;;;11.02;5.45;;;;;;;;;;5111051;28;20035;-64
2023/07/14 06:17:43;;;;;;;14.10;5.82;;;;;;;;;;5110722;28;20078;-64
2023/07/14 06:20:11;;;;;;;11.45;4.55;;;;;;;;;;5109757;28;20402;-64
2023/07/14 06:22:38;;;;;;;13.32;5.72;;;;;;;;;;5111381;28;20056;-64
2023/07/14 06:25:04;;;;;;;13.32;5.40;;;;;;;;;;5110375;28;20145;-64
2023/07/14 06:27:33;;;;;;;11.60;5.60;;;;;;;;;;5110608;28;20083;-64
2023/07/14 06:30:00;;;;;;;11.68;5.30;;;;;;;;;;5106671;27;20093;-64
2023/07/14 06:32:26;;;;;;;10.98;5.50;;;;;;;;;;5107089;28;20395;-64
2023/07/14 06:34:56;;;;;;;13.10;5.88;;;;;;;;;;5109818;28;20479;-64
2023/07/14 06:37:24;;;;;;;12.48;5.85;;;;;;;;;;5111100;28;20089;-64
2023/07/14 06:39:50;;;;;;;13.98;5.43;;;;;;;;;;5110048;28;20427;-64
2023/07/14 06:42:16;;;;;;;10.95;5.18;;;;;;;;;;5109990;28;20101;-64
2023/07/14 06:44:43;;;;;;;13.52;5.50;;;;;;;;;;5111824;28;20514;-64
2023/07/14 06:47:09;;;;;;;14.35;5.38;;;;;;;;;;5110223;28;20051;-64
2023/07/14 06:49:36;;;;;;;14.35;6.22;;;;;;;;;;5109425;28;20054;-64
2023/07/14 06:52:03;;;;;;;14.73;5.45;;;;;;;;;;5111672;28;20077;-64
2023/07/14 06:54:29;;;;;;;14.98;4.95;;;;;;;;;;5111801;28;20093;-64
2023/07/14 06:56:57;;;;;;;10.50;5.45;;;;;;;;;;5108436;28;20039;-64
2023/07/14 06:59:23;;;;;;;10.57;4.65;;;;;;;;;;5111066;28;20058;-64
2023/07/14 07:01:49;;;;;;;10.25;4.70;;;;;;;;;;5111826;28;20126;-64
2023/07/14 07:04:16;;;;;;;9.70;4.68;;;;;;;;;;5119639;28;20050;-64
2023/07/14 07:06:42;;;;;;;9.10;4.90;;;;;;;;;;5109688;28;20383;-64
2023/07/14 07:09:09;;;;;;;9.00;4.80;;;;;;;;;;5109592;28;20117;-64
2023/07/14 07:11:35;;;;;;;9.52;5.38;;;;;;;;;;5110489;28;20112;-64
2023/07/14 07:14:02;;;;;;;10.43;5.10;;;;;;;;;;5110946;28;20043;-64
2023/07/14 07:16:28;;;;;;;12.38;5.85;;;;;;;;;;5110387;28;20560;-64
2023/07/14 07:18:55;;;;;;;12.68;5.55;;;;;;;;;;5111584;28;20036;-64
2023/07/14 07:21:21;;;;;;;13.27;5.88;;;;;;;;;;5111718;28;20075;-64
2023/07/14 07:23:47;;;;;;;12.30;4.70;;;;;;;;;;5109944;28;20059;-64
2023/07/14 07:26:13;;;;;;;10.35;5.40;;;;;;;;;;5113265;28;20043;-64
2023/07/14 07:28:40;;;;;;;11.38;4.50;;;;;;;;;;5114540;27;20067;-64
2023/07/14 07:31:09;;;;;;;9.23;4.05;;;;;;;;;;5114941;28;20043;-64
2023/07/14 07:33:36;;;;;;;9.70;4.30;;;;;;;;;;5115852;28;20047;-64
2023/07/14 07:36:14;;;;;;;10.38;4.68;;;;;;;;;;5111712;27;20054;-64
2023/07/14 07:38:42;;;;;;;12.43;4.82;;;;;;;;;;5103403;28;20051;-64
2023/07/14 07:41:08;;;;;;;9.88;4.15;;;;;;;;;;5115384;28;20051;-64
2023/07/14 07:43:35;;;;;;;13.13;4.30;;;;;;;;;;5114278;28;20036;-64
2023/07/14 07:46:01;;;;;;;9.95;4.25;;;;;;;;;;5111831;28;20096;-64
2023/07/14 07:48:27;;;;;;;6.97;3.70;;;;;;;;;;5104849;27;20116;-64
2023/07/14 07:50:53;;;;;;;12.27;4.30;;;;;;;;;;5114263;28;20391;-64
2023/07/14 07:53:19;;;;;;;7.57;4.47;;;;;;;;;;5114624;28;20479;-64
2023/07/14 07:55:58;;;;;;;6.47;3.35;;;;;;;;;;5112351;27;20061;-64
2023/07/14 07:58:24;;;;;;;7.82;3.17;;;;;;;;;;5109324;27;20130;-64
2023/07/14 08:00:54;;;;;;;10.50;3.08;;;;;;;;;;5094605;28;20040;-64
2023/07/14 08:03:21;;;;;;;8.00;3.50;;;;;;;;;;5102524;28;20387;-64
2023/07/14 08:05:48;;;;;;;7.47;3.17;;;;;;;;;;5113091;28;20048;-64
2023/07/14 08:08:14;;;;;;;10.90;2.90;;;;;;;;;;5115013;28;20123;-64
2023/07/14 08:10:45;;;;;;;10.95;3.47;;;;;;;;;;5113472;28;20035;-64
2023/07/14 08:13:12;;;;;;;7.90;3.30;;;;;;;;;;5113731;27;20054;-64
2023/07/14 08:15:39;;;;;;;7.20;4.00;;;;;;;;;;5114809;27;20036;-64
2023/07/14 08:18:07;;;;;;;8.23;3.03;;;;;;;;;;5113491;27;20059;-64
2023/07/14 08:20:37;;;;;;;9.20;3.78;;;;;;;;;;5112414;28;20092;-64
2023/07/14 08:23:07;;;;;;;7.63;3.30;;;;;;;;;;5111621;28;20089;-64
2023/07/14 08:25:33;;;;;;;9.05;3.72;;;;;;;;;;5113140;28;20483;-64
2023/07/14 08:27:59;;;;;;;7.90;2.92;;;;;;;;;;5113691;27;20052;-64
2023/07/14 08:30:25;;;;;;;7.75;3.17;;;;;;;;;;5114221;28;20040;-64
2023/07/14 08:32:52;;;;;;;8.95;3.38;;;;;;;;;;5114070;27;20043;-64
2023/07/14 08:35:19;;;;;;;6.68;3.33;;;;;;;;;;5113815;27;20039;-64
2023/07/14 08:37:45;;;;;;;7.60;3.25;;;;;;;;;;5111944;28;20058;-64
2023/07/14 08:40:16;;;;;;;8.95;2.97;;;;;;;;;;5114295;28;20035;-64
2023/07/14 08:43:05;;;;;;;12.45;3.70;;;;;;;;;;5112770;27;20138;-64
2023/07/14 08:45:31;;;;;;;9.57;3.05;;;;;;;;;;5101865;28;20499;-64
2023/07/14 08:48:21;;;;;;;7.57;3.10;;;;;;;;;;5111461;28;20359;-64
2023/07/14 08:50:50;;;;;;;7.65;3.35;;;;;;;;;;5102693;28;20051;-64
2023/07/14 08:53:22;;;;;;;5.95;3.15;;;;;;;;;;5112227;28;20043;-64
2023/07/14 08:55:48;;;;;;;8.38;3.08;;;;;;;;;;5104788;28;20043;-64
2023/07/14 08:58:16;;;;;;;8.07;3.38;;;;;;;;;;5109486;27;20105;-64
2023/07/14 09:00:55;;;;;;;9.48;3.22;;;;;;;;;;5112248;28;20107;-64
2023/07/14 09:03:27;;;;;;;7.03;2.22;;;;;;;;;;5112883;27;20463;-64
2023/07/14 09:05:58;;;;;;;6.30;2.50;;;;;;;;;;5112455;28;20119;-64
2023/07/14 09:08:27;;;;;;;7.82;2.40;;;;;;;;;;5111320;28;20516;-64
2023/07/14 09:10:53;;;;;;;8.30;2.75;;;;;;;;;;5113093;28;20040;-64
2023/07/14 09:13:36;;;;;;;6.75;2.60;;;;;;;;;;5113230;27;20097;-64
2023/07/14 09:16:03;;;;;;;6.22;2.50;;;;;;;;;;5112719;27;20391;-64
2023/07/14 09:18:35;;;;;;;7.55;2.97;;;;;;;;;;5111247;28;20043;-64
2023/07/14 09:21:03;;;;;;;8.63;2.50;;;;;;;;;;5111814;28;20035;-64
2023/07/14 09:23:29;;;;;;;6.93;2.55;;;;;;;;;;5110171;27;20344;-64
2023/07/14 09:26:08;;;;;;;9.32;3.28;;;;;;;;;;5112641;27;20126;-64
2023/07/14 09:28:40;;;;;;;8.60;3.03;;;;;;;;;;5112912;27;20123;-64
2023/07/14 09:31:15;;;;;;;6.75;2.65;;;;;;;;;;5112695;28;20479;-64
2023/07/14 09:33:49;;;;;;;6.30;2.70;;;;;;;;;;5111913;27;20050;-64
2023/07/14 09:36:15;;;;;;;7.82;3.33;;;;;;;;;;5112813;28;20047;-64
2023/07/14 09:38:53;;;;;;;6.93;2.67;;;;;;;;;;5112066;28;20047;-64
2023/07/14 09:41:22;;;;;;;7.18;2.85;;;;;;;;;;5112851;28;20467;-64
2023/07/14 09:43:49;;;;;;;7.45;3.15;;;;;;;;;;5110715;27;20040;-64
2023/07/14 09:46:19;;;;;;;10.82;3.70;;;;;;;;;;5111948;28;20155;-64
2023/07/14 09:48:48;;;;;;;6.95;3.38;;;;;;;;;;5111542;28;20062;-64
2023/07/14 09:51:19;;;;;;;10.35;3.70;;;;;;;;;;5110888;28;20035;-64
2023/07/14 09:53:58;;;;;;;8.70;3.17;;;;;;;;;;5112495;28;20052;-64
2023/07/14 09:56:41;;;;;;;8.90;3.67;;;;;;;;;;5111480;28;20063;-64
2023/07/14 09:59:15;;;;;;;8.70;3.40;;;;;;;;;;5110503;28;20079;-64
2023/07/14 10:01:51;;;;;;;8.27;3.80;;;;;;;;;;5110759;28;20047;-64
2023/07/14 10:04:17;;;;;;;7.60;2.95;;;;;;;;;;5110675;28;20487;-64
2023/07/14 10:06:47;;;;;;;6.93;3.30;;;;;;;;;;5109891;28;20051;-64
2023/07/14 10:09:16;;;;;;;7.60;3.65;;;;;;;;;;5111032;27;20512;-64
2023/07/14 10:11:46;;;;;;;9.05;3.70;;;;;;;;;;5108879;28;20044;-64
2023/07/14 10:14:19;;;;;;;9.32;4.35;;;;;;;;;;5112132;28;20407;-64
2023/07/14 10:16:46;;;;;;;7.60;3.45;;;;;;;;;;5110935;28;20062;-64
2023/07/14 10:19:18;;;;;;;8.57;3.65;;;;;;;;;;5111633;28;20047;-64
2023/07/14 10:21:58;;;;;;;6.03;3.17;;;;;;;;;;5111762;28;20127;-64
2023/07/14 10:24:24;;;;;;;11.07;3.67;;;;;;;;;;5111171;28;20044;-64
2023/07/14 10:26:52;;;;;;;6.63;3.22;;;;;;;;;;5109984;28;20100;-64
2023/07/14 10:29:20;;;;;;;9.48;3.45;;;;;;;;;;5111550;28;20039;-64
2023/07/14 10:31:49;;;;;;;6.60;3.30;;;;;;;;;;5111942;28;20118;-64
2023/07/14 10:34:15;;;;;;;7.40;3.28;;;;;;;;;;5109600;27;20043;-64
2023/07/14 10:36:43;;;;;;;7.55;2.88;;;;;;;;;;5111769;28;20092;-65
2023/07/14 10:39:15;;;;;;;7.75;3.60;;;;;;;;;;5109954;27;20040;-64
2023/07/14 10:41:47;;;;;;;6.60;3.00;;;;;;;;;;5111210;28;20088;-65
2023/07/14 10:44:21;;;;;;;6.65;3.20;;;;;;;;;;5111931;28;20440;-64
2023/07/14 10:46:52;;;;;;;6.70;2.90;;;;;;;;;;5112023;28;20043;-64
2023/07/14 10:49:22;;;;;;;7.10;2.60;;;;;;;;;;5110813;28;20051;-64
2023/07/14 10:51:56;;;;;;;5.68;2.60;;;;;;;;;;5107348;28;20040;-65
2023/07/14 10:54:27;;;;;;;5.80;2.38;;;;;;;;;;5111425;28;20040;-64
2023/07/14 10:56:58;;;;;;;7.68;3.05;;;;;;;;;;5105960;28;20083;-64
2023/07/14 10:59:41;;;;;;;10.20;3.33;;;;;;;;;;5111843;28;20064;-65
2023/07/14 11:02:13;;;;;;;8.38;2.85;;;;;;;;;;5102858;28;20043;-65
2023/07/14 11:04:43;;;;;;;5.63;2.70;;;;;;;;;;5114715;28;20035;-64
2023/07/14 11:07:15;;;;;;;6.22;2.90;;;;;;;;;;5115883;28;20059;-64
2023/07/14 11:09:41;;;;;;;7.72;2.75;;;;;;;;;;5107237;28;20391;-64
2023/07/14 11:12:10;;;;;;;7.40;3.35;;;;;;;;;;5116002;28;20051;-65
2023/07/14 11:14:36;;;;;;;6.50;3.13;;;;;;;;;;5115885;28;20112;-65
2023/07/14 11:17:21;;;;;;;9.30;3.13;;;;;;;;;;5115183;28;20047;-64
2023/07/14 11:19:56;;;;;;;7.85;3.00;;;;;;;;;;5106999;27;20078;-65
2023/07/14 11:22:42;;;;;;;9.20;3.25;;;;;;;;;;5113154;27;20044;-64
2023/07/14 11:25:10;;;;;;;6.90;3.10;;;;;;;;;;5111119;28;20078;-64
2023/07/14 11:27:40;;;;;;;6.20;2.85;;;;;;;;;;5115798;28;20045;-65
2023/07/14 11:30:09;;;;;;;10.10;3.30;;;;;;;;;;5114593;27;20071;-65
2023/07/14 11:32:46;;;;;;;7.07;2.63;;;;;;;;;;5113978;28;20051;-65
2023/07/14 11:35:32;;;;;;;5.88;2.88;;;;;;;;;;5113703;28;20387;-64
2023/07/14 11:38:04;;;;;;;6.35;3.00;;;;;;;;;;5114851;28;20059;-65
2023/07/14 11:40:33;;;;;;;7.47;3.10;;;;;;;;;;5113961;27;20043;-64
2023/07/14 11:43:00;;;;;;;9.93;3.03;;;;;;;;;;5113435;28;20039;-65
2023/07/14 11:45:32;;;;;;;6.70;2.85;;;;;;;;;;5111685;28;20039;-65
2023/07/14 11:47:59;;;;;;;7.55;3.03;;;;;;;;;;5115054;28;20050;-65
2023/07/14 11:50:28;;;;;;;4.75;2.33;;;;;;;;;;5113971;27;20100;-65
2023/07/14 11:53:06;;;;;;;6.63;2.70;;;;;;;;;;5113029;27;20154;-64
2023/07/14 11:55:34;;;;;;;8.52;3.45;;;;;;;;;;5115539;28;20185;-65
2023/07/14 11:58:18;;;;;;;6.13;3.17;;;;;;;;;;5114321;28;20376;-64
2023/07/14 12:00:52;;;;;;;9.10;3.25;;;;;;;;;;5113919;27;20139;-64
2023/07/14 12:03:28;;;;;;;8.93;3.30;;;;;;;;;;5112424;28;20104;-64
2023/07/14 12:06:28;;;;;;;7.60;3.13;;;;;;;;;;5114137;28;20054;-65
2023/07/14 12:09:06;;;;;;;8.48;2.78;;;;;;;;;;5071003;28;20047;-64
2023/07/14 12:11:38;;;;;;;8.93;2.75;;;;;;;;;;5111075;27;20544;-65
2023/07/14 12:14:25;;;;;;;8.27;3.58;;;;;;;;;;5114800;28;20160;-64
2023/07/14 12:16:51;;;;;;;7.45;3.10;;;;;;;;;;5113619;28;20043;-64
2023/07/14 12:19:22;;;;;;;9.70;4.32;;;;;;;;;;5112588;28;20055;-65
2023/07/14 12:22:02;;;;;;;7.80;3.45;;;;;;;;;;5112183;27;20044;-64
2023/07/14 12:24:30;;;;;;;14.10;4.43;;;;;;;;;;5114614;28;20122;-64
2023/07/14 12:27:02;;;;;;;13.60;4.68;;;;;;;;;;5112627;28;20043;-64
2023/07/14 12:29:29;;;;;;;8.45;4.20;;;;;;;;;;5113505;28;20039;-64
2023/07/14 12:31:56;;;;;;;10.40;4.50;;;;;;;;;;5113503;27;20047;-64
2023/07/14 12:34:28;;;;;;;10.07;4.25;;;;;;;;;;5113279;28;20044;-64
2023/07/14 12:36:54;;;;;;;11.35;4.22;;;;;;;;;;5113225;28;20048;-64
2023/07/14 12:39:20;;;;;;;12.32;4.65;;;;;;;;;;5112957;28;20529;-64
2023/07/14 12:41:49;;;;;;;7.75;3.83;;;;;;;;;;5112705;27;20044;-64
2023/07/14 12:44:21;;;;;;;11.27;4.88;;;;;;;;;;5112909;28;20039;-64
2023/07/14 12:46:47;;;;;;;8.35;4.00;;;;;;;;;;5112274;28;20047;-64
2023/07/14 12:49:30;;;;;;;9.57;4.97;;;;;;;;;;5114198;28;20074;-64
2023/07/14 12:51:56;;;;;;;13.05;4.38;;;;;;;;;;5110073;27;20047;-64
2023/07/14 12:54:27;;;;;;;11.48;4.40;;;;;;;;;;5113495;28;20452;-64
2023/07/14 12:56:57;;;;;;;11.23;6.90;;;;;;;;;;5114834;27;20043;-64
2023/07/14 12:59:23;;;;;;;10.50;3.80;;;;;;;;;;5113159;27;20048;-64
2023/07/14 13:01:50;;;;;;;9.52;4.40;;;;;;;;;;5111277;27;20086;-64
2023/07/14 13:04:18;;;;;;;10.90;4.65;;;;;;;;;;5113500;28;20395;-64
2023/07/14 13:06:45;;;;;;;12.70;5.20;;;;;;;;;;5111429;28;20044;-64
2023/07/14 13:09:31;;;;;;;13.70;4.50;;;;;;;;;;5112302;28;20036;-64
2023/07/14 13:11:58;;;;;;;9.55;4.78;;;;;;;;;;5112175;27;20133;-64
2023/07/14 13:14:29;;;;;;;11.13;4.70;;;;;;;;;;5113833;28;20045;-64
2023/07/14 13:16:55;;;;;;;12.85;5.70;;;;;;;;;;5111697;27;20047;-64
2023/07/14 13:19:34;;;;;;;12.80;4.78;;;;;;;;;;5113388;28;20440;-64
2023/07/14 13:22:01;;;;;;;10.90;4.35;;;;;;;;;;5111885;27;20035;-64
2023/07/14 13:24:28;;;;;;;14.82;5.88;;;;;;;;;;5112623;28;20043;-64
2023/07/14 13:26:59;;;;;;;13.88;5.07;;;;;;;;;;5111423;27;20043;-64
2023/07/14 13:29:27;;;;;;;10.98;5.80;;;;;;;;;;5112381;28;20123;-64
2023/07/14 13:31:59;;;;;;;11.75;5.93;;;;;;;;;;5111188;27;20039;-64
2023/07/14 13:34:29;;;;;;;13.38;6.40;;;;;;;;;;5109924;27;20378;-64
2023/07/14 13:36:55;;;;;;;13.43;6.70;;;;;;;;;;5110431;28;20062;-64
2023/07/14 13:39:27;;;;;;;12.77;5.95;;;;;;;;;;5112147;28;20365;-64
2023/07/14 13:41:56;;;;;;;11.70;5.70;;;;;;;;;;5111487;27;20044;-64
2023/07/14 13:44:28;;;;;;;13.35;6.20;;;;;;;;;;5111930;27;20127;-64
2023/07/14 13:46:54;;;;;;;11.65;4.72;;;;;;;;;;5113140;28;20055;-64
2023/07/14 13:49:21;;;;;;;13.30;5.30;;;;;;;;;;5111439;28;20136;-64
2023/07/14 13:51:47;;;;;;;12.85;6.18;;;;;;;;;;5111143;27;20485;-64
2023/07/14 13:54:17;;;;;;;12.50;5.28;;;;;;;;;;5112966;28;20054;-64
2023/07/14 13:56:46;;;;;;;11.95;5.00;;;;;;;;;;5111188;27;20036;-64
2023/07/14 13:59:14;;;;;;;10.20;5.53;;;;;;;;;;5112228;28;20043;-64
2023/07/14 14:01:40;;;;;;;14.18;4.53;;;;;;;;;;5111629;27;20043;-64
2023/07/14 14:04:12;;;;;;;16.13;6.13;;;;;;;;;;5112129;28;20048;-64
2023/07/14 14:06:38;;;;;;;10.63;5.00;;;;;;;;;;5104221;28;20048;-64
2023/07/14 14:09:16;;;;;;;10.35;5.00;;;;;;;;;;5112710;28;20119;-64
2023/07/14 14:11:43;;;;;;;11.10;4.97;;;;;;;;;;5111430;27;20055;-64
2023/07/14 14:14:10;;;;;;;11.75;4.75;;;;;;;;;;5110897;27;20122;-64
2023/07/14 14:16:36;;;;;;;12.07;5.68;;;;;;;;;;5114200;27;20047;-64
2023/07/14 14:19:05;;;;;;;16.50;6.68;;;;;;;;;;5110535;28;20051;-64
2023/07/14 14:21:33;;;;;;;11.27;5.35;;;;;;;;;;5111173;28;20044;-64
2023/07/14 14:23:59;;;;;;;10.77;5.85;;;;;;;;;;5110841;28;20143;-64
2023/07/14 14:26:26;;;;;;;13.55;5.70;;;;;;;;;;5111490;28;20039;-64
2023/07/14 14:28:52;;;;;;;9.88;5.32;;;;;;;;;;5110992;28;20043;-64
2023/07/14 14:31:18;;;;;;;12.45;5.72;;;;;;;;;;5111784;28;20039;-64
2023/07/14 14:33:45;;;;;;;11.88;5.70;;;;;;;;;;5110324;28;20097;-64
2023/07/14 14:36:11;;;;;;;12.57;5.25;;;;;;;;;;5111278;28;20047;-64
2023/07/14 14:38:39;;;;;;;11.38;5.43;;;;;;;;;;5110960;28;20455;-64
2023/07/14 14:41:10;;;;;;;10.88;4.43;;;;;;;;;;5110656;28;20444;-64